Terminal Aerodrome Forecast
Issued by NWS Cleveland, OH

Home | Current Version | Previous Version | Graphics & Text | Print | Product List | Glossary On
Versions: 1 2 3 4 5 6 7 8 9 10 11 12 13 14 15 16 17 18 19
000
FTUS41 KCLE 191700
TAFERI
TAF
KERI 191737Z 1918/2018 26006KT P6SM BKN035
     FM192300 22008KT P6SM SCT035 BKN200
     FM200900 20010KT P6SM BKN025 OVC120
     FM201500 20012KT P6SM SCT030 OVC070=

USA.gov is the U.S. government's official web portal to all federal, state and local government web resources and services.